Time;durP1;ratioP1;P1;durP2;ratioP2;P2;SDS_P1;SDS_P2;PMS_P1;PMS_P2;Temp;Humidity;BMP_temperature;BMP_pressure;BME280_temperature;BME280_humidity;BME280_pressure;Samples;Min_cycle;Max_cycle;Signal;HPM_P1;HPM_P2
2023/07/28 00:01:21;;;;;;;12.27;10.90;;;;;;;16.72;100.00;100492.50;4917912;29;20052;-86
2023/07/28 00:03:49;;;;;;;13.00;11.63;;;;;;;15.44;100.00;100287.25;4917786;29;20047;-86
2023/07/28 00:09:12;;;;;;;12.65;11.35;;;;;;;15.22;100.00;100253.72;4898530;29;20037;-87
2023/07/28 00:12:00;;;;;;;14.35;11.80;;;;;;;16.72;100.00;100488.09;4898935;29;20100;-86
2023/07/28 00:14:54;;;;;;;13.80;11.88;;;;;;;16.73;100.00;100489.75;4924201;29;20215;-86
2023/07/28 00:17:19;;;;;;;14.00;11.85;;;;;;;16.16;100.00;100402.97;4936655;29;20397;-88
2023/07/28 00:19:45;;;;;;;13.60;12.20;;;;;;;15.48;100.00;100282.56;4935733;29;20118;-87
2023/07/28 00:22:46;;;;;;;12.73;11.13;;;;;;;15.98;100.00;100355.19;4936637;29;20052;-86
2023/07/28 00:25:11;;;;;;;12.20;10.88;;;;;;;15.47;100.00;100283.53;4935804;29;20370;-87
2023/07/28 00:27:55;;;;;;;12.30;11.00;;;;;;;15.59;100.00;100299.78;4936415;29;20047;-87
2023/07/28 00:30:29;;;;;;;12.65;10.35;;;;;;;16.33;100.00;100422.25;4936584;29;20082;-86
2023/07/28 00:33:21;;;;;;;12.88;10.68;;;;;;;16.76;100.00;100473.78;4936503;29;20052;-86
2023/07/28 00:36:02;;;;;;;12.50;11.00;;;;;;;15.90;100.00;100336.84;4935858;29;20038;-86
2023/07/28 00:42:36;;;;;;;13.10;11.20;;;;;;;15.69;100.00;100300.63;4936372;29;20059;-87
2023/07/28 00:48:55;;;;;;;13.77;11.07;;;;;;;16.75;100.00;100474.75;4917861;28;20036;-86
2023/07/28 00:51:54;;;;;;;12.43;10.20;;;;;;;16.73;100.00;100470.66;4916899;29;20040;-86
2023/07/28 00:58:40;;;;;;;13.45;11.45;;;;;;;16.74;100.00;100485.34;4917052;29;20039;-87
2023/07/28 01:17:26;;;;;;;12.73;11.27;;;;;;;16.80;100.00;100497.78;5001956;23;20394;-86
2023/07/28 01:27:30;;;;;;;14.38;11.88;;;;;;;16.80;100.00;100492.56;4995952;28;20439;-88
2023/07/28 01:47:00;;;;;;;15.32;11.70;;;;;;;16.46;100.00;100440.97;4995563;28;20037;-86
2023/07/28 02:06:31;;;;;;;14.02;11.82;;;;;;;15.72;100.00;100302.91;4994392;28;20404;-87
2023/07/28 02:19:36;;;;;;;14.27;11.48;;;;;;;15.54;100.00;100282.00;4994619;28;20045;-88
2023/07/28 02:35:47;;;;;;;;;;;;;;;16.90;100.00;100501.16;4994835;28;20530;-85
2023/07/28 02:38:40;;;;;;;16.20;12.20;;;;;;;16.84;100.00;100502.56;4994020;28;19961;-86
2023/07/28 02:41:07;;;;;;;15.27;11.30;;;;;;;16.06;100.00;100379.56;4993935;28;20049;-87
2023/07/28 02:43:39;;;;;;;15.88;12.73;;;;;;;16.12;100.00;100396.38;4993257;28;20072;-87
2023/07/28 02:46:11;;;;;;;17.67;11.75;;;;;;;16.79;100.00;100499.56;4993847;28;20065;-87
2023/07/28 02:48:36;;;;;;;16.42;12.93;;;;;;;15.57;100.00;100306.94;4993990;28;20041;-87
2023/07/28 02:54:35;;;;;;;;;;;;;;;16.79;100.00;100510.00;4994226;28;20065;-87
2023/07/28 02:57:00;;;;;;;18.60;12.45;;;;;;;16.18;100.00;100408.84;4976643;28;19914;-87
2023/07/28 02:59:43;;;;;;;17.40;12.82;;;;;;;16.12;100.00;100414.63;4976381;28;20026;-86
2023/07/28 03:02:39;;;;;;;19.98;13.90;;;;;;;16.77;100.00;100511.94;4993894;28;20034;-87
2023/07/28 03:08:37;;;;;;;16.88;12.85;;;;;;;16.79;100.00;100522.22;4993924;28;20037;-87
2023/07/28 03:11:11;;;;;;;19.25;13.60;;;;;;;16.78;100.00;100528.41;4993519;28;20040;-86
2023/07/28 03:13:57;;;;;;;19.05;13.38;;;;;;;15.87;100.00;100373.59;4991894;28;20026;-86
2023/07/28 03:16:28;;;;;;;20.90;13.77;;;;;;;16.30;100.00;100449.38;4949208;29;20170;-87
2023/07/28 03:36:19;;;;;;;26.10;15.65;;;;;;;16.80;100.00;100531.69;4952399;29;20039;-86
2023/07/28 03:42:17;;;;;;;;;;;;;;;;;;;;;
2023/07/28 03:45:37;;;;;;;23.50;15.10;;;;;;;15.69;100.00;100361.31;4952190;29;20019;-87
2023/07/28 03:51:24;;;;;;;24.95;15.57;;;;;;;15.74;100.00;100376.53;4822832;29;20079;-88
2023/07/28 03:53:55;;;;;;;25.30;17.00;;;;;;;15.46;100.00;100337.34;4847679;29;20041;-87
2023/07/28 03:57:04;;;;;;;27.02;16.48;;;;;;;16.78;100.00;100544.88;4876809;29;20093;-87
2023/07/28 03:59:47;;;;;;;27.05;16.50;;;;;;;16.37;100.00;100483.53;4876383;29;20124;-87
2023/07/28 04:09:20;;;;;;;25.73;17.73;;;;;;;16.82;100.00;100548.03;4876802;29;20105;-87
2023/07/28 04:11:51;;;;;;;26.65;17.77;;;;;;;15.68;100.00;100370.06;4876505;29;20545;-87
2023/07/28 04:14:34;;;;;;;30.45;19.17;;;;;;;15.63;100.00;100368.84;4876616;29;20037;-87
2023/07/28 04:20:52;;;;;;;32.70;19.25;;;;;;;15.96;100.00;100417.03;4858064;29;20052;-88
2023/07/28 04:23:17;;;;;;;30.52;19.02;;;;;;;15.56;100.00;100352.97;4859556;29;20050;-86
2023/07/28 04:26:13;;;;;;;27.83;17.88;;;;;;;16.79;100.00;100550.91;4936022;29;20038;-87
2023/07/28 04:28:55;;;;;;;29.98;19.50;;;;;;;16.35;100.00;100478.47;4952207;29;20038;-87
2023/07/28 04:31:55;;;;;;;31.60;18.63;;;;;;;16.80;100.00;100545.53;4935727;29;20433;-87
2023/07/28 04:46:02;;;;;;;32.17;17.48;;;;;;;16.90;100.00;100548.94;4955768;29;20050;-86
2023/07/28 04:48:28;;;;;;;29.63;17.98;;;;;;;16.84;100.00;100536.47;4939682;29;20481;-86
2023/07/28 04:50:53;;;;;;;25.90;17.23;;;;;;;16.49;100.00;100477.16;4955256;29;20043;-86
2023/07/28 05:03:57;;;;;;;26.70;17.83;;;;;;;17.03;100.00;100558.22;5015507;28;20032;-86
2023/07/28 05:20:04;;;;;;;25.35;16.50;;;;;;;16.11;100.00;100389.53;4897419;29;20053;-86
2023/07/28 05:49:41;;;;;;;24.08;17.23;;;;;;;17.58;100.00;100590.31;4897540;29;20043;-86
2023/07/28 05:55:50;;;;;;;;;;;;;;;17.66;100.00;100605.25;4940125;28;20517;-87
2023/07/28 06:08:35;;;;;;;24.98;18.27;;;;;;;16.54;100.00;100401.16;4994904;28;20073;-88
2023/07/28 06:11:12;;;;;;;26.08;18.00;;;;;;;17.10;100.00;100486.22;4972997;28;20049;-86
2023/07/28 06:14:27;;;;;;;28.55;18.45;;;;;;;16.73;100.00;100424.56;4955815;28;20094;-86
2023/07/28 06:17:02;;;;;;;26.02;18.70;;;;;;;16.79;100.00;100429.16;4958838;28;20552;-86
2023/07/28 06:19:46;;;;;;;24.95;18.77;;;;;;;16.83;100.00;100422.72;4972984;28;20047;-85
2023/07/28 06:22:18;;;;;;;28.58;19.80;;;;;;;17.23;100.00;100478.06;4972864;28;20035;-88
2023/07/28 06:28:42;;;;;;;27.00;20.08;;;;;;;18.15;100.00;100616.19;4973039;28;20628;-90
2023/07/28 06:31:20;;;;;;;28.30;21.73;;;;;;;16.75;100.00;100393.94;4972591;28;20054;-87
2023/07/28 06:34:41;;;;;;;27.80;21.50;;;;;;;18.24;100.00;100615.28;4972793;28;20035;-87
2023/07/28 06:37:22;;;;;;;29.42;23.20;;;;;;;18.33;100.00;100632.69;4972637;28;20047;-88
2023/07/28 06:39:49;;;;;;;;;;;;;;;18.47;100.00;100626.06;4972958;28;20026;-88
2023/07/28 06:46:31;;;;;;;34.13;26.23;;;;;;;17.23;100.00;100442.34;5014282;28;20100;-89
2023/07/28 06:52:30;;;;;;;;;;;;;;;18.45;100.00;100641.91;4934662;29;20051;-86
2023/07/28 06:58:29;;;;;;;38.50;28.58;;;;;;;17.30;100.00;100458.19;4934431;29;20046;-85
2023/07/28 07:01:22;;;;;;;43.72;29.40;;;;;;;18.56;100.00;100646.91;4933853;29;20119;-86
2023/07/28 07:03:50;;;;;;;44.10;29.90;;;;;;;17.77;100.00;100514.47;4933152;29;20046;-86
2023/07/28 07:06:16;;;;;;;45.92;30.90;;;;;;;17.69;100.00;100484.81;4933945;29;20038;-91
2023/07/28 07:11:41;;;;;;;41.95;31.13;;;;;;;17.52;100.00;100462.19;4934042;29;20075;-89
2023/07/28 07:14:37;;;;;;;39.83;28.77;;;;;;;18.68;100.00;100657.13;4933831;29;20032;-89
2023/07/28 07:20:51;;;;;;;43.25;29.60;;;;;;;17.97;100.00;100556.09;4923612;29;20147;-89
2023/07/28 07:34:22;;;;;;;38.33;28.42;;;;;;;18.74;100.00;100672.22;4858960;29;20113;-88
2023/07/28 07:48:28;;;;;;;37.85;27.38;;;;;;;17.73;100.00;100517.56;5133029;23;19922;-89
2023/07/28 07:58:12;;;;;;;33.97;25.65;;;;;;;17.76;100.00;100525.06;4896055;29;20550;-87
2023/07/28 08:15:03;;;;;;;29.38;22.90;;;;;;;18.80;100.00;100700.41;4934764;29;20172;-88
2023/07/28 08:18:24;;;;;;;25.60;21.05;;;;;;;18.78;100.00;100703.19;4936639;29;20043;-86
2023/07/28 08:24:26;;;;;;;25.40;20.23;;;;;;;18.81;100.00;100705.50;4924518;29;20034;-90
2023/07/28 08:27:23;;;;;;;25.05;20.35;;;;;;;18.90;100.00;100712.41;4936703;29;20445;-87
2023/07/28 08:30:58;;;;;;;24.98;19.55;;;;;;;17.87;100.00;100526.63;4936699;29;20035;-88
2023/07/28 08:33:27;;;;;;;24.35;19.60;;;;;;;18.69;100.00;100658.81;4861533;29;20140;-89
2023/07/28 08:36:27;;;;;;;24.08;19.67;;;;;;;19.06;100.00;100716.91;4861849;29;20607;-84
2023/07/28 08:39:05;;;;;;;24.90;19.05;;;;;;;18.70;100.00;100663.88;4860816;29;20073;-86
2023/07/28 08:41:30;;;;;;;24.33;18.88;;;;;;;18.92;100.00;100709.66;4870776;29;20627;-83
2023/07/28 08:43:55;;;;;;;23.02;18.15;;;;;;;18.82;100.00;100698.47;4879818;29;20033;-83
2023/07/28 08:46:21;;;;;;;22.63;17.55;;;;;;;18.69;100.00;100672.72;4879545;29;20123;-85
2023/07/28 08:48:46;;;;;;;23.42;18.63;;;;;;;19.10;100.00;100722.69;4879451;29;20044;-85
2023/07/28 08:51:15;;;;;;;23.83;18.65;;;;;;;19.06;100.00;100692.53;4898373;29;20029;-84
2023/07/28 08:53:42;;;;;;;24.05;18.95;;;;;;;19.44;100.00;100731.38;4882337;29;20044;-82
2023/07/28 08:56:08;;;;;;;22.42;19.40;;;;;;;19.34;100.00;100687.94;4898135;29;20032;-86
2023/07/28 08:58:34;;;;;;;20.98;18.00;;;;;;;19.68;100.00;100722.03;4881952;29;20037;-84
2023/07/28 09:01:09;;;;;;;22.70;18.95;;;;;;;18.95;100.00;100606.47;4898112;29;20024;-89
2023/07/28 09:03:43;;;;;;;20.88;18.63;;;;;;;18.65;100.00;100552.84;4898271;29;20036;-88
2023/07/28 09:06:28;;;;;;;23.38;18.77;;;;;;;19.95;100.00;100731.44;4900392;29;20087;-90
2023/07/28 09:08:56;;;;;;;21.63;17.95;;;;;;;19.62;100.00;100675.50;4993271;28;20045;-85
2023/07/28 09:15:27;;;;;;;21.52;17.63;;;;;;;20.27;100.00;100735.94;5035243;28;20044;-85
2023/07/28 09:19:00;;;;;;;20.80;17.90;;;;;;;20.27;100.00;100734.16;5035286;28;20055;-87
2023/07/28 09:21:36;;;;;;;20.55;17.63;;;;;;;19.21;100.00;100562.72;5000868;28;20072;-86
2023/07/28 09:27:57;;;;;;;21.15;18.90;;;;;;;20.76;100.00;100736.81;5034123;28;20509;-88
2023/07/28 09:31:18;;;;;;;20.20;17.60;;;;;;;21.21;100.00;100743.31;5035037;28;20029;-85
2023/07/28 09:33:46;;;;;;;22.02;18.52;;;;;;;20.44;100.00;100575.00;5034619;28;20037;-84
2023/07/28 09:36:30;;;;;;;21.33;18.75;;;;;;;21.96;100.00;100745.53;5034608;28;20040;-83
2023/07/28 09:39:06;;;;;;;18.95;16.92;;;;;;;21.56;100.00;100670.34;5034782;28;20113;-82
2023/07/28 09:41:44;;;;;;;19.98;17.88;;;;;;;21.56;100.00;100657.19;5034425;28;20477;-85
2023/07/28 09:44:19;;;;;;;20.10;17.35;;;;;;;21.76;100.00;100701.28;5034213;28;20025;-85
2023/07/28 09:53:14;;;;;;;20.33;17.50;;;;;;;22.94;100.00;100742.25;5034298;28;20048;-82
2023/07/28 09:56:04;;;;;;;20.52;17.25;;;;;;;23.10;97.96;100742.06;5034141;28;20084;-85
2023/07/28 09:59:21;;;;;;;21.17;18.35;;;;;;;22.34;96.35;100564.97;5034283;28;20071;-85
2023/07/28 10:04:40;;;;;;;19.08;15.60;;;;;;;22.10;91.32;100594.09;4916117;29;20441;-84
2023/07/28 10:57:33;;;;;;;11.00;9.95;;;;;;;24.96;89.16;100737.03;4822145;29;20124;-82
2023/07/28 11:00:23;;;;;;;10.73;9.63;;;;;;;24.73;84.74;100745.22;4822153;29;20038;-83
2023/07/28 11:03:43;;;;;;;7.80;6.97;;;;;;;24.76;80.82;100742.19;4822259;29;20046;-85
2023/07/28 11:16:55;;;;;;;6.80;5.18;;;;;;;24.48;75.31;100629.47;4788424;29;20061;-83
2023/07/28 11:19:24;;;;;;;6.05;5.25;;;;;;;24.07;75.98;100565.97;4806769;29;20051;-82
2023/07/28 11:26:22;;;;;;;5.40;4.90;;;;;;;25.32;79.39;100735.06;4822158;29;20050;-84
2023/07/28 11:29:07;;;;;;;7.03;5.63;;;;;;;24.64;77.91;100632.81;4821656;29;20456;-84
2023/07/28 11:31:56;;;;;;;7.90;5.25;;;;;;;25.46;76.39;100742.06;4821848;29;20038;-84
2023/07/28 11:38:26;;;;;;;5.25;4.72;;;;;;;24.78;74.13;100568.53;4876939;29;20140;-83
2023/07/28 11:45:02;;;;;;;;;;;;;;;;;;;;;
2023/07/28 11:47:39;;;;;;;4.43;4.03;;;;;;;25.04;71.01;100612.75;4895548;29;20411;-82
2023/07/28 11:50:56;;;;;;;4.80;4.18;;;;;;;24.96;73.02;100591.75;4897649;29;20119;-83
2023/07/28 12:13:58;;;;;;;3.83;3.20;;;;;;;25.19;70.21;100737.66;4882897;29;20120;-83
2023/07/28 12:20:51;;;;;;;4.00;2.85;;;;;;;25.54;71.01;100745.53;4997080;28;20041;-82
2023/07/28 12:23:27;;;;;;;3.83;2.95;;;;;;;24.48;69.57;100573.19;4936716;29;20050;-84
2023/07/28 12:26:13;;;;;;;4.45;2.65;;;;;;;25.56;68.27;100740.88;4920407;29;20520;-84
2023/07/28 12:28:53;;;;;;;3.88;2.67;;;;;;;24.73;71.04;100618.44;4936614;29;20039;-83
2023/07/28 12:31:24;;;;;;;3.42;2.45;;;;;;;25.45;70.07;100743.06;4936483;29;20477;-83
2023/07/28 12:33:52;;;;;;;3.38;2.40;;;;;;;24.81;68.04;100645.53;4936506;29;20039;-84
2023/07/28 12:36:35;;;;;;;3.50;2.70;;;;;;;24.30;69.15;100558.66;4936323;29;20038;-83
2023/07/28 12:39:01;;;;;;;4.13;2.45;;;;;;;25.38;67.77;100752.81;4936582;29;20039;-83
2023/07/28 12:45:31;;;;;;;2.97;1.85;;;;;;;25.14;69.24;100750.63;4936193;29;20075;-83
2023/07/28 12:48:06;;;;;;;3.85;1.92;;;;;;;23.83;70.59;100609.41;4975583;28;20506;-83
2023/07/28 12:50:40;;;;;;;5.57;1.98;;;;;;;23.43;70.74;100581.78;4996234;28;20026;-83
2023/07/28 12:53:20;;;;;;;2.15;1.77;;;;;;;23.75;72.69;100651.72;4996033;28;20122;-82
2023/07/28 12:56:13;;;;;;;3.17;1.90;;;;;;;24.55;73.69;100758.88;4996237;28;20022;-83
2023/07/28 12:58:47;;;;;;;2.30;1.80;;;;;;;23.70;74.04;100625.91;4996062;28;20034;-82
2023/07/28 13:01:16;;;;;;;1.67;1.45;;;;;;;23.59;74.81;100613.19;4994981;28;20065;-83
2023/07/28 13:08:14;;;;;;;;;;;;;;;;;;;;;
2023/07/28 13:11:30;;;;;;;2.88;1.73;;;;;;;24.69;74.30;100768.56;4995493;28;20369;-82
2023/07/28 13:13:55;;;;;;;1.83;1.55;;;;;;;24.04;73.08;100669.25;4995508;28;20102;-82
2023/07/28 13:17:03;;;;;;;3.67;1.80;;;;;;;24.85;73.22;100762.16;4968060;28;20122;-83
2023/07/28 13:19:28;;;;;;;2.55;1.77;;;;;;;23.88;72.82;100596.44;4976351;28;20548;-82
2023/07/28 13:21:54;;;;;;;1.50;1.40;;;;;;;24.99;72.28;100765.75;4976163;28;20022;-82
2023/07/28 13:24:19;;;;;;;3.33;1.58;;;;;;;24.34;71.28;100645.38;4958465;28;20126;-82
2023/07/28 13:27:06;;;;;;;2.75;1.45;;;;;;;25.32;72.35;100761.50;4975924;28;20030;-83
2023/07/28 13:33:08;;;;;;;3.63;1.60;;;;;;;25.32;72.51;100694.59;4975219;28;20033;-83
2023/07/28 13:35:39;;;;;;;2.60;1.60;;;;;;;25.05;73.76;100660.13;4976850;28;20436;-83
2023/07/28 13:38:08;;;;;;;2.35;1.83;;;;;;;24.54;71.41;100583.00;4976016;28;20027;-82
2023/07/28 13:41:12;;;;;;;3.40;1.63;;;;;;;25.67;71.73;100750.91;4975944;28;20035;-81
2023/07/28 13:43:43;;;;;;;3.72;1.60;;;;;;;24.41;70.77;100586.38;4975639;28;20030;-82
2023/07/28 13:47:07;;;;;;;2.38;1.70;;;;;;;24.39;72.09;100577.03;4958131;28;20099;-82
2023/07/28 13:49:35;;;;;;;2.45;1.95;;;;;;;25.17;70.70;100755.50;4878688;29;20072;-83
2023/07/28 13:52:18;;;;;;;2.25;1.67;;;;;;;24.48;72.50;100647.09;4878385;29;20496;-83
2023/07/28 13:58:27;;;;;;;3.55;1.55;;;;;;;25.19;72.86;100757.97;4878786;29;20075;-82
2023/07/28 14:00:58;;;;;;;1.60;1.48;;;;;;;24.46;72.70;100654.41;4862381;29;20041;-82
2023/07/28 14:03:52;;;;;;;;;;;;;;;;;;;;;
2023/07/28 14:06:50;;;;;;;2.58;1.33;;;;;;;25.31;70.60;100751.13;4831587;29;20570;-80
2023/07/28 14:09:18;;;;;;;2.92;1.50;;;;;;;24.20;71.20;100597.75;4878757;29;20392;-82
2023/07/28 14:16:14;;;;;;;;;;;;;;;;;;;;;
2023/07/28 14:18:05;;;;;;;2.58;1.48;;;;;;;24.29;70.03;100578.16;4841514;29;20056;-85
2023/07/28 14:20:39;;;;;;;2.97;1.90;;;;;;;25.15;68.10;100697.56;4841123;29;20049;-85
2023/07/28 14:23:55;;;;;;;2.42;1.65;;;;;;;25.18;69.84;100664.66;4841067;29;20072;-84
2023/07/28 14:26:42;;;;;;;3.47;1.58;;;;;;;25.83;67.99;100758.53;4915420;29;20123;-83
2023/07/28 14:53:37;;;;;;;2.53;1.90;;;;;;;25.51;68.56;100756.53;4874570;29;19975;-85
2023/07/28 14:56:09;;;;;;;2.85;1.90;;;;;;;24.42;68.86;100603.03;4877569;29;20041;-82
2023/07/28 14:58:34;;;;;;;4.57;1.65;;;;;;;25.19;68.96;100737.66;4877486;29;20485;-84
2023/07/28 15:01:00;;;;;;;2.92;1.90;;;;;;;25.24;69.55;100739.69;4877236;29;20069;-83
2023/07/28 15:03:28;;;;;;;2.75;1.92;;;;;;;25.11;69.56;100728.03;4877346;29;20479;-86
2023/07/28 15:05:55;;;;;;;3.80;1.88;;;;;;;25.11;70.37;100719.31;4877553;29;20538;-84
2023/07/28 15:08:20;;;;;;;2.72;2.13;;;;;;;25.05;69.10;100709.50;4861698;29;20392;-81
2023/07/28 15:10:46;;;;;;;2.95;1.90;;;;;;;25.21;69.57;100743.56;4877177;29;20073;-83
2023/07/28 15:13:11;;;;;;;4.68;2.30;;;;;;;24.80;69.44;100699.38;4877436;29;20032;-82
2023/07/28 15:15:39;;;;;;;3.15;2.25;;;;;;;24.45;70.03;100690.56;4961380;28;20043;-86
2023/07/28 15:18:05;;;;;;;3.85;2.30;;;;;;;24.45;71.60;100743.34;4956444;28;20407;-86
2023/07/28 15:20:30;;;;;;;5.60;2.13;;;;;;;24.18;73.23;100729.03;4956841;28;20125;-81
2023/07/28 15:22:55;;;;;;;3.88;2.33;;;;;;;24.00;73.77;100729.50;4974027;28;20077;-83
2023/07/28 15:25:21;;;;;;;2.90;1.75;;;;;;;23.78;75.71;100730.44;4973818;28;20058;-84
2023/07/28 15:27:46;;;;;;;3.58;2.08;;;;;;;23.22;74.90;100695.03;4974017;28;20055;-85
2023/07/28 15:30:12;;;;;;;3.92;1.70;;;;;;;23.06;75.40;100715.28;4973887;28;20029;-85
2023/07/28 15:32:37;;;;;;;1.92;1.30;;;;;;;23.06;76.39;100752.16;4973563;28;20031;-84
2023/07/28 15:35:04;;;;;;;3.08;1.50;;;;;;;22.55;76.94;100717.69;4955903;28;20042;-85
2023/07/28 15:37:29;;;;;;;3.38;1.38;;;;;;;22.42;76.65;100738.53;4973257;28;20038;-87
2023/07/28 15:39:55;;;;;;;1.90;1.42;;;;;;;22.15;78.57;100702.22;4973897;28;20610;-87
2023/07/28 15:42:20;;;;;;;3.25;1.58;;;;;;;22.38;78.10;100766.19;4973886;28;20117;-88
2023/07/28 15:44:46;;;;;;;1.85;1.30;;;;;;;22.24;79.17;100772.19;4973912;28;20492;-84
2023/07/28 15:47:11;;;;;;;3.42;1.52;;;;;;;22.00;80.57;100742.38;4973659;28;20054;-85
2023/07/28 15:49:37;;;;;;;3.50;1.77;;;;;;;21.86;81.91;100734.41;4973620;28;20030;-86
2023/07/28 15:52:05;;;;;;;3.55;1.95;;;;;;;21.82;82.25;100733.09;4973918;28;20027;-88
2023/07/28 15:54:30;;;;;;;4.47;2.30;;;;;;;22.02;82.49;100769.34;4973631;28;20035;-84
2023/07/28 15:56:55;;;;;;;4.28;2.55;;;;;;;21.94;83.88;100760.66;4956022;28;20129;-86
2023/07/28 15:59:21;;;;;;;4.07;2.30;;;;;;;21.61;83.71;100712.66;4956016;28;20093;-87
2023/07/28 16:01:46;;;;;;;4.88;2.25;;;;;;;21.93;84.12;100782.69;4973480;28;20026;-87
2023/07/28 16:04:11;;;;;;;4.13;2.47;;;;;;;21.89;85.14;100774.31;4973664;28;20035;-86
2023/07/28 16:06:37;;;;;;;4.35;3.00;;;;;;;21.75;85.22;100765.34;4956410;28;20026;-88
2023/07/28 16:09:02;;;;;;;4.88;3.00;;;;;;;21.63;84.69;100737.81;4974107;28;20500;-87
2023/07/28 16:11:32;;;;;;;4.72;3.53;;;;;;;21.82;85.75;100756.75;4973383;28;20045;-82
2023/07/28 16:13:57;;;;;;;5.05;3.20;;;;;;;21.60;85.84;100708.41;4973844;28;20461;-81
2023/07/28 16:16:23;;;;;;;4.38;2.90;;;;;;;21.99;86.43;100753.88;4973405;28;20030;-78
2023/07/28 16:18:48;;;;;;;4.20;3.38;;;;;;;21.91;86.90;100739.97;4991390;28;20066;-81
2023/07/28 16:21:13;;;;;;;7.63;4.05;;;;;;;21.76;86.22;100706.53;4992926;28;20033;-81
2023/07/28 16:26:36;;;;;;;4.95;3.17;;;;;;;22.51;83.97;100770.84;4932747;29;20539;-81
2023/07/28 16:29:01;;;;;;;8.60;4.18;;;;;;;22.74;83.28;100755.06;4932899;29;20111;-80
2023/07/28 16:31:33;;;;;;;5.47;3.55;;;;;;;22.11;82.92;100643.06;4932739;29;20481;-81
2023/07/28 16:34:29;;;;;;;6.88;4.10;;;;;;;23.00;81.98;100758.13;4932777;29;20031;-81
2023/07/28 16:36:54;;;;;;;7.00;4.43;;;;;;;23.07;82.43;100755.59;4936453;29;20546;-82
2023/07/28 16:39:40;;;;;;;5.97;3.60;;;;;;;23.25;81.35;100748.19;4937236;29;20106;-89
2023/07/28 16:42:06;;;;;;;4.07;3.65;;;;;;;22.11;80.71;100564.16;4921225;29;20516;-86
2023/07/28 16:44:31;;;;;;;5.50;3.88;;;;;;;22.59;78.34;100615.50;4936426;29;20035;-85
2023/07/28 16:47:36;;;;;;;5.30;3.78;;;;;;;23.58;79.40;100739.88;4936740;29;20038;-82
2023/07/28 16:50:08;;;;;;;5.57;4.43;;;;;;;23.38;76.60;100690.38;4936364;29;20075;-86
2023/07/28 16:55:37;;;;;;;5.05;3.78;;;;;;;23.64;76.37;100699.66;4936208;29;20414;-88
2023/07/28 16:58:16;;;;;;;5.43;4.38;;;;;;;22.57;77.02;100552.53;4936142;29;20043;-85
2023/07/28 17:00:44;;;;;;;5.85;4.43;;;;;;;23.06;76.30;100659.16;4935982;29;20066;-85
2023/07/28 17:03:09;;;;;;;8.05;4.32;;;;;;;23.04;76.35;100671.69;4954535;28;20053;-86
2023/07/28 17:05:44;;;;;;;6.38;4.50;;;;;;;22.24;79.29;100567.03;4996109;28;20026;-86
2023/07/28 17:08:58;;;;;;;5.50;4.15;;;;;;;23.17;80.42;100737.72;4994638;28;20034;-86
2023/07/28 17:11:41;;;;;;;4.97;4.07;;;;;;;22.68;79.44;100674.16;4995970;28;20157;-82
2023/07/28 17:14:06;;;;;;;6.28;4.75;;;;;;;22.14;81.32;100612.00;4995971;28;20384;-83
2023/07/28 17:16:31;;;;;;;7.75;4.75;;;;;;;22.79;81.29;100736.91;4978306;28;20018;-79
2023/07/28 17:18:57;;;;;;;7.57;4.25;;;;;;;22.67;82.23;100719.91;4995139;28;20530;-80
2023/07/28 17:21:22;;;;;;;7.40;4.95;;;;;;;22.52;82.29;100710.16;4995662;28;20023;-82
2023/07/28 17:23:48;;;;;;;6.93;4.90;;;;;;;22.76;82.39;100745.16;4995670;28;20023;-81
2023/07/28 17:26:13;;;;;;;5.55;3.88;;;;;;;22.46;82.39;100683.75;4995190;28;20130;-83
2023/07/28 17:28:39;;;;;;;6.25;4.43;;;;;;;22.57;82.07;100710.44;4995485;28;20375;-84
2023/07/28 17:31:04;;;;;;;7.45;5.00;;;;;;;22.64;82.06;100726.34;4995370;28;20026;-87
2023/07/28 17:33:29;;;;;;;5.47;4.35;;;;;;;22.65;82.19;100735.88;4995220;28;20042;-85
2023/07/28 17:35:55;;;;;;;4.95;3.60;;;;;;;22.37;81.56;100690.88;4977502;28;20038;-86
2023/07/28 17:38:21;;;;;;;4.85;3.70;;;;;;;22.39;82.03;100698.59;4995436;28;20034;-86
2023/07/28 17:40:48;;;;;;;7.18;4.00;;;;;;;22.34;80.71;100707.03;4995128;28;20018;-85
2023/07/28 17:43:16;;;;;;;6.88;4.70;;;;;;;22.31;82.20;100707.34;4995122;28;20472;-85
2023/07/28 17:45:41;;;;;;;5.82;4.35;;;;;;;22.28;83.20;100699.81;4995168;28;20022;-85
2023/07/28 17:48:07;;;;;;;6.05;3.90;;;;;;;22.27;83.72;100720.06;4976557;28;20100;-88
2023/07/28 17:50:32;;;;;;;5.10;3.38;;;;;;;22.00;84.45;100681.91;4995000;28;20041;-86
2023/07/28 17:52:58;;;;;;;4.88;3.97;;;;;;;22.00;84.38;100692.41;4977453;28;20475;-86
2023/07/28 17:55:23;;;;;;;6.18;4.38;;;;;;;21.84;82.97;100668.88;4995015;28;20030;-92
2023/07/28 17:57:49;;;;;;;7.32;4.40;;;;;;;21.58;85.24;100648.16;4977355;28;20113;-86
2023/07/28 18:00:20;;;;;;;4.43;3.85;;;;;;;21.98;87.15;100723.31;4995540;28;20530;-92
2023/07/28 18:06:22;;;;;;;6.35;4.40;;;;;;;20.80;85.86;100561.47;5001747;28;19928;-86
2023/07/28 18:08:57;;;;;;;4.57;3.80;;;;;;;21.02;86.68;100599.28;4904450;29;20047;-86
2023/07/28 18:14:57;;;;;;;5.20;3.80;;;;;;;20.88;87.27;100551.75;4954055;29;20104;-87
2023/07/28 18:21:27;;;;;;;5.25;4.28;;;;;;;21.95;87.21;100722.88;4954289;29;20067;-85
2023/07/28 18:28:09;;;;;;;4.35;3.58;;;;;;;21.85;90.64;100728.34;4975567;28;20103;-87
2023/07/28 18:31:17;;;;;;;6.13;3.92;;;;;;;21.76;89.09;100726.75;4974913;28;20093;-86
2023/07/28 19:03:28;;;;;;;5.75;4.40;;;;;;;19.41;100.00;100535.28;4993871;28;20381;-87
2023/07/28 19:09:38;;;;;;;6.00;4.50;;;;;;;19.21;100.00;100539.19;4994234;28;20050;-91
2023/07/28 19:22:53;;;;;;;7.50;5.40;;;;;;;19.85;100.00;100726.31;4993898;28;20404;-85
2023/07/28 19:26:03;;;;;;;9.77;5.90;;;;;;;19.73;100.00;100725.81;4992189;28;20058;-82
2023/07/28 19:28:48;;;;;;;8.35;6.20;;;;;;;18.37;100.00;100529.44;4993503;28;20476;-89
2023/07/28 19:32:25;;;;;;;7.57;5.72;;;;;;;19.50;100.00;100729.94;4976233;28;20432;-87
2023/07/28 19:34:49;;;;;;;7.28;5.75;;;;;;;19.14;100.00;100693.41;4989941;28;20048;-89
2023/07/28 19:40:36;;;;;;;7.78;5.70;;;;;;;18.58;100.00;100616.22;4993579;28;20526;-85
2023/07/28 19:43:04;;;;;;;7.07;6.00;;;;;;;18.83;100.00;100663.47;4976038;28;20121;-85
2023/07/28 19:45:42;;;;;;;7.65;5.93;;;;;;;19.06;100.00;100700.41;4993306;28;20129;-85
2023/07/28 19:51:35;;;;;;;7.10;5.30;;;;;;;18.18;100.00;100553.97;4993515;28;20241;-84
2023/07/28 19:54:30;;;;;;;7.65;5.35;;;;;;;19.34;100.00;100733.28;4993432;28;20030;-83
2023/07/28 19:57:15;;;;;;;6.57;5.20;;;;;;;18.31;100.00;100559.63;4993030;28;20305;-88
2023/07/28 19:59:47;;;;;;;7.25;5.50;;;;;;;18.53;100.00;100597.53;4992685;28;20039;-84
2023/07/28 20:02:12;;;;;;;7.32;5.38;;;;;;;19.37;100.00;100748.72;4993189;28;20118;-85
2023/07/28 20:04:47;;;;;;;8.20;5.72;;;;;;;19.28;100.00;100727.88;4993230;28;20105;-82
2023/07/28 20:07:35;;;;;;;7.13;5.70;;;;;;;19.42;100.00;100754.28;4993381;28;20134;-82
2023/07/28 20:10:01;;;;;;;9.20;6.85;;;;;;;19.35;100.00;100745.41;4995256;28;20030;-82
2023/07/28 20:12:27;;;;;;;8.38;6.65;;;;;;;19.20;100.00;100729.47;4997921;28;20105;-82
2023/07/28 20:14:53;;;;;;;7.18;6.22;;;;;;;19.02;100.00;100709.53;4979894;28;20118;-82
2023/07/28 20:17:19;;;;;;;8.48;6.25;;;;;;;19.23;100.00;100741.41;4997085;28;20022;-82
2023/07/28 20:19:44;;;;;;;7.20;6.15;;;;;;;19.25;100.00;100739.44;4996773;28;20081;-82
2023/07/28 20:22:12;;;;;;;8.63;5.88;;;;;;;19.23;100.00;100748.44;4997097;28;20035;-81
2023/07/28 20:24:40;;;;;;;8.00;4.05;;;;;;;18.86;100.00;100705.84;4996664;28;20048;-83
2023/07/28 20:27:11;;;;;;;7.10;3.83;;;;;;;18.49;100.00;100643.28;4979269;28;20398;-83
2023/07/28 20:29:43;;;;;;;5.05;3.80;;;;;;;19.21;100.00;100748.59;4996847;28;20050;-84
2023/07/28 20:35:11;;;;;;;6.68;3.40;;;;;;;18.11;100.00;100575.66;4996636;28;20536;-83
2023/07/28 20:37:36;;;;;;;5.93;3.80;;;;;;;18.59;100.00;100654.47;4996545;28;20069;-83
2023/07/28 20:40:17;;;;;;;6.25;3.70;;;;;;;18.32;100.00;100600.50;4996703;28;20034;-81